createdAt,value
2022-08-04T00:01:35.946Z,100771.13
2022-08-04T00:04:14.870Z,100770.69
2022-08-04T00:07:00.991Z,100769.28
2022-08-04T00:09:40.225Z,100774.91
2022-08-04T00:12:12.565Z,100775.25
2022-08-04T00:14:50.579Z,100771.56
2022-08-04T00:17:26.929Z,100772.72
2022-08-04T00:20:02.210Z,100768.81
2022-08-04T00:22:33.318Z,100769.13
2022-08-04T00:25:05.559Z,100773.06
2022-08-04T00:27:36.306Z,100773.66
2022-08-04T00:30:07.065Z,100779.03
2022-08-04T00:32:37.994Z,100776.50
2022-08-04T00:35:09.745Z,100777.63
2022-08-04T00:37:40.049Z,100777.94
2022-08-04T00:40:25.711Z,100774.69
2022-08-04T00:43:13.995Z,100770.38
2022-08-04T00:46:25.270Z,100776.66
2022-08-04T00:49:25.197Z,100772.78
2022-08-04T00:52:32.599Z,100772.22
2022-08-04T00:55:11.009Z,100771.81
2022-08-04T00:58:04.491Z,100773.47
2022-08-04T01:00:50.051Z,100768.56
2022-08-04T01:03:48.853Z,100770.69
2022-08-04T01:06:36.563Z,100773.06
2022-08-04T01:09:37.131Z,100777.00
2022-08-04T01:12:43.097Z,100773.94
2022-08-04T01:15:22.762Z,100776.91
2022-08-04T01:18:06.454Z,100779.44
2022-08-04T01:20:43.430Z,100775.22
2022-08-04T01:23:59.416Z,100780.81
2022-08-04T01:26:57.717Z,100782.66
2022-08-04T01:29:46.462Z,100788.13
2022-08-04T01:32:26.544Z,100787.28
2022-08-04T01:35:04.939Z,100789.13
2022-08-04T01:37:50.633Z,100793.03
2022-08-04T01:40:22.375Z,100787.28
2022-08-04T01:42:54.913Z,100792.19
2022-08-04T01:45:26.587Z,100784.50
2022-08-04T01:47:57.519Z,100784.75
2022-08-04T01:50:28.371Z,100782.78
2022-08-04T01:52:57.503Z,100788.13
2022-08-04T01:55:51.888Z,100786.47
2022-08-04T01:58:21.013Z,100787.56
2022-08-04T02:01:02.453Z,100781.41
2022-08-04T02:04:19.996Z,100775.69
2022-08-04T02:06:41.861Z,100786.72
2022-08-04T02:09:24.707Z,100777.78
2022-08-04T02:12:25.935Z,100782.09
2022-08-04T02:15:04.232Z,100781.41
2022-08-04T02:17:47.431Z,100783.09
2022-08-04T02:20:24.624Z,100776.91
2022-08-04T02:23:00.659Z,100770.63
2022-08-04T02:25:35.312Z,100776.91
2022-08-04T02:28:22.703Z,100769.94
2022-08-04T02:31:09.369Z,100772.03
2022-08-04T02:33:43.187Z,100765.16
2022-08-04T02:36:24.808Z,100766.88
2022-08-04T02:39:01.559Z,100763.22
2022-08-04T02:41:33.156Z,100764.47
2022-08-04T02:44:04.548Z,100771.06
2022-08-04T02:46:37.465Z,100764.06
2022-08-04T02:49:10.339Z,100761.41
2022-08-04T02:51:43.405Z,100761.53
2022-08-04T02:54:12.671Z,100764.59
2022-08-04T02:56:45.820Z,100762.38
2022-08-04T02:59:24.416Z,100760.13
2022-08-04T03:01:58.417Z,100770.09
2022-08-04T03:04:52.278Z,100765.31
2022-08-04T03:08:07.140Z,100771.75
2022-08-04T03:11:24.826Z,100770.03
2022-08-04T03:14:37.150Z,100775.25
2022-08-04T03:18:01.128Z,100770.50
2022-08-04T03:21:31.430Z,100773.41
2022-08-04T03:25:01.464Z,100771.16
2022-08-04T03:28:20.220Z,100773.81
2022-08-04T03:31:16.935Z,100775.50
2022-08-04T03:34:04.483Z,100782.50
2022-08-04T03:37:18.236Z,100786.13
2022-08-04T03:40:38.846Z,100787.28
2022-08-04T03:43:57.851Z,100783.09
2022-08-04T03:47:13.405Z,100787.69
2022-08-04T03:50:10.043Z,100788.13
2022-08-04T03:53:26.765Z,100789.53
2022-08-04T03:56:52.591Z,100794.59
2022-08-04T03:59:48.889Z,100790.66
2022-08-04T04:03:00.652Z,100791.50
2022-08-04T04:06:18.991Z,100801.16
2022-08-04T04:09:52.375Z,100798.50
2022-08-04T04:13:17.077Z,100804.25
2022-08-04T04:16:08.357Z,100803.97
2022-08-04T04:19:14.464Z,100804.53
2022-08-04T04:22:24.291Z,100802.41
2022-08-04T04:25:13.280Z,100806.91
2022-08-04T04:28:43.688Z,100803.81
2022-08-04T04:31:10.149Z,100809.69
2022-08-04T04:33:59.592Z,100809.13
2022-08-04T04:36:50.655Z,100816.25
2022-08-04T04:39:33.561Z,100815.84
2022-08-04T04:42:43.696Z,100812.63
2022-08-04T04:45:25.922Z,100819.47
2022-08-04T04:48:10.960Z,100817.06
2022-08-04T04:51:02.402Z,100822.00
2022-08-04T04:53:46.244Z,100824.19
2022-08-04T04:56:24.225Z,100823.34
2022-08-04T04:58:57.777Z,100827.38
2022-08-04T05:02:18.874Z,100823.97
2022-08-04T05:05:31.811Z,100839.59
2022-08-04T05:09:03.745Z,100838.81
2022-08-04T05:14:33.076Z,100834.69
2022-08-04T05:15:11.304Z,100835.06
2022-08-04T05:17:44.892Z,100837.34
2022-08-04T05:20:20.242Z,100837.31
2022-08-04T05:22:56.017Z,100840.06
2022-08-04T05:25:29.393Z,100836.47
2022-08-04T05:28:07.727Z,100833.81
2022-08-04T05:30:48.718Z,100835.53
2022-08-04T05:33:28.935Z,100836.91
2022-08-04T05:36:20.426Z,100840.72
2022-08-04T05:38:55.861Z,100838.69
2022-08-04T05:41:32.186Z,100841.34
2022-08-04T05:44:16.148Z,100843.25
2022-08-04T05:46:54.082Z,100841.78
2022-08-04T05:49:26.356Z,100842.63
2022-08-04T05:51:58.596Z,100844.84
2022-08-04T05:54:29.408Z,100853.44
2022-08-04T05:56:59.867Z,100851.81
2022-08-04T05:59:33.078Z,100851.59
2022-08-04T06:02:06.068Z,100862.47
2022-08-04T06:04:40.464Z,100856.06
2022-08-04T06:07:11.244Z,100850.94
2022-08-04T06:09:41.074Z,100853.00
2022-08-04T06:12:15.727Z,100855.66
2022-08-04T06:14:48.335Z,100857.22
2022-08-04T06:19:57.631Z,100858.00
2022-08-04T06:20:24.826Z,100860.38
2022-08-04T06:22:59.956Z,100861.94
2022-08-04T06:25:35.549Z,100872.84
2022-08-04T06:28:08.986Z,100865.66
2022-08-04T06:30:39.279Z,100867.56
2022-08-04T06:33:24.490Z,100865.72
2022-08-04T06:35:56.187Z,100866.69
2022-08-04T06:38:27.358Z,100873.91
2022-08-04T06:40:58.277Z,100869.88
2022-08-04T06:43:29.680Z,100869.03
2022-08-04T06:46:04.140Z,100870.69
2022-08-04T06:48:34.883Z,100866.56
2022-08-04T06:51:31.390Z,100863.91
2022-08-04T06:53:53.777Z,100865.53
2022-08-04T06:56:25.153Z,100862.50
2022-08-04T06:58:56.051Z,100871.16
2022-08-04T07:01:28.063Z,100867.06
2022-08-04T07:03:58.710Z,100865.09
2022-08-04T07:06:28.377Z,100868.94
2022-08-04T07:08:57.497Z,100861.41
2022-08-04T07:11:28.493Z,100863.44
2022-08-04T07:14:08.865Z,100857.69
2022-08-04T07:16:38.573Z,100864.84
2022-08-04T07:19:10.164Z,100864.66
2022-08-04T07:21:40.924Z,100865.53
2022-08-04T07:24:33.050Z,100870.06
2022-08-04T07:27:02.672Z,100872.63
2022-08-04T07:29:32.415Z,100867.28
2022-08-04T07:32:02.475Z,100871.41
2022-08-04T07:34:33.875Z,100869.22
2022-08-04T07:37:04.272Z,100872.69
2022-08-04T07:39:48.082Z,100878.28
2022-08-04T07:42:21.441Z,100874.84
2022-08-04T07:44:50.423Z,100875.44
2022-08-04T07:47:24.937Z,100872.97
2022-08-04T07:50:15.367Z,100875.34
2022-08-04T07:52:58.548Z,100869.91
2022-08-04T07:55:35.158Z,100864.94
2022-08-04T07:58:03.809Z,100877.53
2022-08-04T08:00:33.345Z,100874.75
2022-08-04T08:03:04.795Z,100875.97
2022-08-04T08:05:34.958Z,100869.25
2022-08-04T08:08:23.757Z,100865.63
2022-08-04T08:10:53.877Z,100873.78
2022-08-04T08:13:23.116Z,100871.28
2022-08-04T08:15:54.373Z,100881.53
2022-08-04T08:18:23.132Z,100863.03
2022-08-04T08:20:53.789Z,100862.81
2022-08-04T08:23:23.249Z,100869.88
2022-08-04T08:25:54.069Z,100868.28
2022-08-04T08:28:22.963Z,100864.13
2022-08-04T08:30:52.982Z,100866.03
2022-08-04T08:33:23.718Z,100866.69
2022-08-04T08:36:02.752Z,100868.94
2022-08-04T08:38:45.810Z,100871.72
2022-08-04T08:42:03.515Z,100876.94
2022-08-04T08:45:29.369Z,100869.53
2022-08-04T08:48:34.505Z,100878.09
2022-08-04T08:51:36.665Z,100883.00
2022-08-04T08:54:52.865Z,100875.50
2022-08-04T08:57:59.849Z,100874.91
2022-08-04T09:00:43.188Z,100863.22
2022-08-04T09:04:04.773Z,100869.28
2022-08-04T09:07:14.840Z,100877.00
2022-08-04T09:10:11.791Z,100865.38
2022-08-04T09:12:50.574Z,100870.19
2022-08-04T09:15:34.318Z,100875.59
2022-08-04T09:18:10.760Z,100866.38
2022-08-04T09:20:49.159Z,100866.75
2022-08-04T09:23:29.420Z,100862.28
2022-08-04T09:26:07.096Z,100870.38
2022-08-04T09:28:54.499Z,100867.63
2022-08-04T09:31:51.709Z,100854.47
2022-08-04T09:34:39.191Z,100867.03
2022-08-04T09:37:25.753Z,100866.19
2022-08-04T09:40:08.811Z,100864.41
2022-08-04T09:43:00.728Z,100860.34
2022-08-04T09:45:43.305Z,100864.63
2022-08-04T09:48:22.309Z,100866.44
2022-08-04T09:51:00.075Z,100862.91
2022-08-04T09:53:50.282Z,100867.09
2022-08-04T09:56:31.690Z,100854.53
2022-08-04T09:59:19.344Z,100862.19
2022-08-04T10:02:00.105Z,100856.72
2022-08-04T10:04:34.019Z,100863.59
2022-08-04T10:07:41.606Z,100852.66
2022-08-04T10:10:35.062Z,100849.72
2022-08-04T10:13:40.795Z,100851.63
2022-08-04T10:16:36.693Z,100852.31
2022-08-04T10:19:21.701Z,100851.44
2022-08-04T10:22:29.304Z,100846.69
2022-08-04T10:25:38.147Z,100848.81
2022-08-04T10:28:13.571Z,100843.94
2022-08-04T10:30:53.069Z,100836.94
2022-08-04T10:33:28.952Z,100835.91
2022-08-04T10:36:04.357Z,100837.44
2022-08-04T10:38:40.806Z,100838.56
2022-08-04T10:41:19.730Z,100825.69
2022-08-04T10:44:00.262Z,100821.88
2022-08-04T10:46:38.478Z,100817.84
2022-08-04T10:49:30.005Z,100823.63
2022-08-04T10:52:08.778Z,100814.16
2022-08-04T10:54:49.091Z,100824.66
2022-08-04T10:57:27.180Z,100813.53
2022-08-04T11:00:05.013Z,100810.53
2022-08-04T11:02:44.137Z,100807.19
2022-08-04T11:05:25.660Z,100822.47
2022-08-04T11:08:01.738Z,100816.44
2022-08-04T11:10:38.484Z,100815.75
2022-08-04T11:13:22.070Z,100813.56
2022-08-04T11:16:05.245Z,100811.31
2022-08-04T11:18:49.241Z,100813.69
2022-08-04T11:21:26.169Z,100798.56
2022-08-04T11:24:05.087Z,100807.75
2022-08-04T11:26:47.007Z,100807.41
2022-08-04T11:29:27.616Z,100806.47
2022-08-04T11:32:03.711Z,100802.88
2022-08-04T11:34:36.708Z,100802.75
2022-08-04T11:37:16.872Z,100799.03
2022-08-04T11:39:52.535Z,100794.69
2022-08-04T11:42:25.073Z,100796.88
2022-08-04T11:45:04.542Z,100798.38
2022-08-04T11:47:47.787Z,100796.31
2022-08-04T11:50:33.521Z,100794.97
2022-08-04T11:53:04.373Z,100796.66
2022-08-04T11:56:08.003Z,100793.81
2022-08-04T11:58:25.229Z,100791.13
2022-08-04T12:01:07.356Z,100783.16
2022-08-04T12:03:59.655Z,100781.53
2022-08-04T12:06:54.028Z,100777.59
2022-08-04T12:09:48.219Z,100777.88
2022-08-04T12:12:29.545Z,100781.59
2022-08-04T12:15:15.282Z,100780.75
2022-08-04T12:17:58.289Z,100772.69
2022-08-04T12:20:40.406Z,100773.69
2022-08-04T12:23:23.611Z,100781.22
2022-08-04T12:25:59.925Z,100782.28
2022-08-04T12:28:59.581Z,100779.16
2022-08-04T12:31:29.970Z,100778.75
2022-08-04T12:34:08.437Z,100764.59
2022-08-04T12:36:46.398Z,100771.13
2022-08-04T12:39:21.189Z,100771.06
2022-08-04T12:42:01.726Z,100758.81
2022-08-04T12:44:37.892Z,100750.03
2022-08-04T12:47:27.317Z,100759.44
2022-08-04T12:50:03.847Z,100757.75
2022-08-04T12:55:37.250Z,100746.50
2022-08-04T12:58:16.497Z,100737.38
2022-08-04T13:02:06.777Z,100737.16
2022-08-04T13:04:04.091Z,100744.78
2022-08-04T13:06:37.113Z,100742.50
2022-08-04T13:09:09.694Z,100737.16
2022-08-04T13:11:55.244Z,100736.91
2022-08-04T13:14:29.525Z,100736.31
2022-08-04T13:17:00.349Z,100731.56
2022-08-04T13:19:30.824Z,100727.59
2022-08-04T13:22:02.915Z,100720.09
2022-08-04T13:24:47.148Z,100726.13
2022-08-04T13:27:26.336Z,100739.59
2022-08-04T13:30:03.852Z,100725.47
2022-08-04T13:32:35.588Z,100716.13
2022-08-04T13:35:05.971Z,100723.38
2022-08-04T13:37:40.286Z,100722.13
2022-08-04T13:40:13.990Z,100716.72
2022-08-04T13:42:50.353Z,100717.47
2022-08-04T13:45:23.374Z,100713.28
2022-08-04T13:48:31.693Z,100707.09
2022-08-04T13:50:56.063Z,100705.03
2022-08-04T13:53:30.732Z,100703.59
2022-08-04T13:56:02.503Z,100697.13
2022-08-04T13:58:40.772Z,100702.44
2022-08-04T14:01:17.902Z,100691.00
2022-08-04T14:04:00.507Z,100686.69
2022-08-04T14:06:34.810Z,100689.56
2022-08-04T14:09:15.796Z,100691.66
2022-08-04T14:12:09.922Z,100690.22
2022-08-04T14:14:48.727Z,100684.59
2022-08-04T14:17:20.782Z,100682.88
2022-08-04T14:19:54.526Z,100681.22
2022-08-04T14:22:34.189Z,100684.59
2022-08-04T14:25:09.407Z,100677.63
2022-08-04T14:27:47.630Z,100678.16
2022-08-04T14:30:27.955Z,100681.53
2022-08-04T14:33:59.689Z,100679.31
2022-08-04T14:35:59.495Z,100675.41
2022-08-04T14:38:51.514Z,100666.81
2022-08-04T14:41:24.167Z,100677.91
2022-08-04T14:43:55.904Z,100670.50
2022-08-04T14:46:30.299Z,100665.72
2022-08-04T14:49:12.002Z,100672.59
2022-08-04T14:51:44.838Z,100667.78
2022-08-04T14:54:18.872Z,100669.63
2022-08-04T14:56:55.537Z,100675.72
2022-08-04T14:59:24.969Z,100669.69
2022-08-04T15:02:01.000Z,100666.13
2022-08-04T15:04:32.347Z,100667.41
2022-08-04T15:07:04.579Z,100654.41
2022-08-04T15:09:34.699Z,100655.72
2022-08-04T15:12:05.934Z,100656.38
2022-08-04T15:14:38.204Z,100654.72
2022-08-04T15:17:29.332Z,100655.75
2022-08-04T15:19:58.645Z,100653.31
2022-08-04T15:22:27.796Z,100653.06
2022-08-04T15:24:56.748Z,100654.75
2022-08-04T15:27:29.501Z,100650.38
2022-08-04T15:30:02.995Z,100656.44
2022-08-04T15:32:36.860Z,100649.34
2022-08-04T15:35:12.697Z,100647.66
2022-08-04T15:37:55.813Z,100645.78
2022-08-04T15:40:33.303Z,100648.47
2022-08-04T15:43:22.600Z,100641.13
2022-08-04T15:46:41.754Z,100641.56
2022-08-04T15:48:43.594Z,100648.09
2022-08-04T15:51:16.878Z,100652.47
2022-08-04T15:54:27.913Z,100638.94
2022-08-04T15:57:03.459Z,100650.41
2022-08-04T16:00:03.296Z,100653.69
2022-08-04T16:02:44.093Z,100646.59
2022-08-04T16:05:39.363Z,100644.66
2022-08-04T16:08:17.587Z,100646.69
2022-08-04T16:10:50.933Z,100646.38
2022-08-04T16:13:22.924Z,100644.31
2022-08-04T16:15:54.925Z,100645.28
2022-08-04T16:18:43.936Z,100644.91
2022-08-04T16:21:26.571Z,100637.56
2022-08-04T16:24:18.261Z,100642.91
2022-08-04T16:26:55.171Z,100640.13
2022-08-04T16:29:38.558Z,100638.88
2022-08-04T16:32:22.790Z,100641.19
2022-08-04T16:35:00.120Z,100638.84
2022-08-04T16:37:37.732Z,100634.47
2022-08-04T16:40:43.560Z,100631.84
2022-08-04T16:43:15.315Z,100632.94
2022-08-04T16:45:54.047Z,100634.81
2022-08-04T16:48:26.952Z,100628.16
2022-08-04T16:51:05.874Z,100624.06
2022-08-04T16:53:52.782Z,100631.16
2022-08-04T16:56:32.942Z,100629.56
2022-08-04T16:59:09.463Z,100624.59
2022-08-04T17:01:45.758Z,100627.06
2022-08-04T17:04:14.659Z,100629.13
2022-08-04T17:06:46.963Z,100626.00
2022-08-04T17:09:21.675Z,100629.53
2022-08-04T17:11:55.068Z,100621.00
2022-08-04T17:14:25.598Z,100621.59
2022-08-04T17:16:58.737Z,100618.41
2022-08-04T17:19:27.684Z,100617.31
2022-08-04T17:22:05.782Z,100619.44
2022-08-04T17:28:09.511Z,100622.69
2022-08-04T17:30:28.505Z,100624.25
2022-08-04T17:32:57.386Z,100623.25
2022-08-04T17:35:26.049Z,100623.13
2022-08-04T17:38:07.503Z,100627.56
2022-08-04T17:40:57.550Z,100618.16
2022-08-04T17:44:04.960Z,100628.09
2022-08-04T17:46:40.945Z,100625.81
2022-08-04T17:49:21.951Z,100625.56
2022-08-04T17:52:05.579Z,100625.84
2022-08-04T17:54:40.215Z,100623.28
2022-08-04T17:57:20.470Z,100625.44
2022-08-04T17:59:56.751Z,100627.38
2022-08-04T18:02:32.195Z,100618.09
2022-08-04T18:05:12.321Z,100638.19
2022-08-04T18:08:38.029Z,100633.09
2022-08-04T18:10:51.648Z,100629.84
2022-08-04T18:13:26.903Z,100639.38
2022-08-04T18:16:03.513Z,100627.88
2022-08-04T18:18:33.007Z,100631.84
2022-08-04T18:21:02.893Z,100638.72
2022-08-04T18:23:33.688Z,100637.13
2022-08-04T18:26:03.760Z,100641.34
2022-08-04T18:28:35.449Z,100643.94
2022-08-04T18:31:04.322Z,100640.66
2022-08-04T18:33:39.847Z,100644.03
2022-08-04T18:39:13.266Z,100648.50
2022-08-04T18:42:01.520Z,100651.41
2022-08-04T18:44:49.405Z,100653.59
2022-08-04T18:47:23.427Z,100648.47
2022-08-04T18:50:59.524Z,100649.16
2022-08-04T18:52:45.220Z,100653.06
2022-08-04T18:55:56.998Z,100646.72
2022-08-04T18:58:06.268Z,100655.16
2022-08-04T19:00:45.535Z,100658.81
2022-08-04T19:03:16.267Z,100661.84
2022-08-04T19:05:48.626Z,100659.38
2022-08-04T19:08:32.823Z,100655.88
2022-08-04T19:11:38.193Z,100665.56
2022-08-04T19:13:58.496Z,100667.25
2022-08-04T19:16:31.533Z,100660.56
2022-08-04T19:19:03.628Z,100657.56
2022-08-04T19:22:01.589Z,100660.75
2022-08-04T19:24:29.223Z,100658.06
2022-08-04T19:26:59.525Z,100661.44
2022-08-04T19:29:37.390Z,100664.44
2022-08-04T19:35:00.780Z,100663.94
2022-08-04T19:38:01.003Z,100667.09
2022-08-04T19:40:18.155Z,100664.25
2022-08-04T19:43:14.386Z,100665.59
2022-08-04T19:45:45.766Z,100661.75
2022-08-04T19:48:19.488Z,100659.56
2022-08-04T19:50:50.100Z,100661.22
2022-08-04T19:53:20.123Z,100662.84
2022-08-04T19:56:01.932Z,100664.19
2022-08-04T19:58:30.623Z,100661.31
2022-08-04T20:00:59.689Z,100662.50
2022-08-04T20:04:09.696Z,100651.47
2022-08-04T20:06:18.385Z,100651.44
2022-08-04T20:08:48.893Z,100656.63
2022-08-04T20:11:20.627Z,100657.63
2022-08-04T20:13:54.846Z,100660.59
2022-08-04T20:16:30.468Z,100661.28
2022-08-04T20:19:04.540Z,100664.56
2022-08-04T20:21:53.823Z,100664.38
2022-08-04T20:24:39.385Z,100671.38
2022-08-04T20:27:15.122Z,100671.00
2022-08-04T20:29:49.480Z,100678.34
2022-08-04T20:32:22.278Z,100672.66
2022-08-04T20:34:55.158Z,100685.34
2022-08-04T20:37:55.135Z,100681.28
2022-08-04T20:40:15.612Z,100673.53
2022-08-04T20:42:46.251Z,100677.19
2022-08-04T20:45:16.217Z,100670.88
2022-08-04T20:47:54.034Z,100682.38
2022-08-04T20:50:30.255Z,100674.00
2022-08-04T20:53:00.007Z,100683.50
2022-08-04T20:55:30.014Z,100669.38
2022-08-04T20:58:03.061Z,100671.06
2022-08-04T21:00:32.945Z,100667.41
2022-08-04T21:03:03.101Z,100670.09
2022-08-04T21:05:33.777Z,100668.41
2022-08-04T21:08:02.551Z,100670.41
2022-08-04T21:10:31.815Z,100671.91
2022-08-04T21:13:00.389Z,100672.91
2022-08-04T21:15:58.381Z,100674.91
2022-08-04T21:18:17.742Z,100675.91
2022-08-04T21:20:59.522Z,100674.19
2022-08-04T21:23:29.200Z,100671.88
2022-08-04T21:26:04.246Z,100671.50
2022-08-04T21:28:33.316Z,100669.66
2022-08-04T21:31:11.296Z,100676.13
2022-08-04T21:33:52.088Z,100685.31
2022-08-04T21:36:22.468Z,100680.19
2022-08-04T21:38:56.470Z,100676.13
2022-08-04T21:41:27.269Z,100677.16
2022-08-04T21:43:58.925Z,100674.09
2022-08-04T21:46:30.080Z,100677.75
2022-08-04T21:48:59.189Z,100678.91
2022-08-04T21:52:00.597Z,100671.44
2022-08-04T21:54:22.762Z,100675.25
2022-08-04T21:56:52.663Z,100678.44
2022-08-04T21:59:24.044Z,100664.72
2022-08-04T22:02:01.700Z,100674.63
2022-08-04T22:04:31.540Z,100675.09
2022-08-04T22:07:03.122Z,100676.56
2022-08-04T22:09:37.753Z,100668.88
2022-08-04T22:12:12.314Z,100671.16
2022-08-04T22:14:42.004Z,100673.81
2022-08-04T22:17:19.061Z,100683.97
2022-08-04T22:19:55.499Z,100670.78
2022-08-04T22:22:40.329Z,100675.44
2022-08-04T22:28:02.835Z,100670.09
2022-08-04T22:30:36.899Z,100671.09
2022-08-04T22:33:09.788Z,100675.38
2022-08-04T22:35:48.651Z,100668.69
2022-08-04T22:38:34.856Z,100667.41
2022-08-04T22:41:11.748Z,100663.69
2022-08-04T22:43:42.252Z,100666.78
2022-08-04T22:46:20.920Z,100661.78
2022-08-04T22:48:52.830Z,100661.94
2022-08-04T22:51:22.800Z,100660.09
2022-08-04T22:53:54.045Z,100667.28
2022-08-04T22:56:38.519Z,100667.41
2022-08-04T22:59:10.895Z,100660.25
2022-08-04T23:01:58.328Z,100646.00
2022-08-04T23:04:32.448Z,100664.09
2022-08-04T23:07:09.260Z,100660.16
2022-08-04T23:09:50.966Z,100657.13
2022-08-04T23:12:28.396Z,100650.72
2022-08-04T23:14:58.333Z,100649.91
2022-08-04T23:17:28.828Z,100647.09
2022-08-04T23:20:00.053Z,100647.91
2022-08-04T23:22:41.453Z,100643.56
2022-08-04T23:25:17.087Z,100639.00
2022-08-04T23:27:48.099Z,100633.16
2022-08-04T23:30:29.581Z,100635.81
2022-08-04T23:32:59.490Z,100641.13
2022-08-04T23:35:28.258Z,100639.44
2022-08-04T23:37:59.843Z,100637.94
2022-08-04T23:40:32.890Z,100634.75
2022-08-04T23:43:17.611Z,100637.41
2022-08-04T23:45:54.331Z,100627.72
2022-08-04T23:48:35.448Z,100629.16
2022-08-04T23:51:14.358Z,100622.00
2022-08-04T23:54:03.613Z,100624.97
2022-08-04T23:56:35.575Z,100628.22
2022-08-04T23:59:17.660Z,100617.03
